createdAt,value
2018-03-17T00:00:42.929Z,79.75
2018-03-17T00:03:46.204Z,79.96
2018-03-17T00:06:50.222Z,79.84
2018-03-17T00:09:53.495Z,79.63
2018-03-17T00:12:56.761Z,79.97
2018-03-17T00:16:00.112Z,79.89
2018-03-17T00:19:03.390Z,80.27
2018-03-17T00:22:07.417Z,79.21
2018-03-17T00:25:11.457Z,78.62
2018-03-17T00:28:14.722Z,80.17
2018-03-17T00:31:18.749Z,79.99
2018-03-17T00:34:22.801Z,79.69
2018-03-17T00:37:26.055Z,79.98
2018-03-17T00:40:30.161Z,79.98
2018-03-17T00:43:34.187Z,80.03
2018-03-17T00:46:38.201Z,79.91
2018-03-17T00:49:42.225Z,79.49
2018-03-17T00:52:45.501Z,79.41
2018-03-17T00:55:48.927Z,79.18
2018-03-17T00:58:52.196Z,78.91
2018-03-17T01:01:55.452Z,78.39
2018-03-17T01:04:58.716Z,79.92
2018-03-17T01:08:01.988Z,79.69
2018-03-17T01:11:06.140Z,79.29
2018-03-17T01:14:09.449Z,79.07
2018-03-17T01:17:12.737Z,79.39
2018-03-17T01:20:16.040Z,79.51
2018-03-17T01:23:19.352Z,79.44
2018-03-17T01:26:22.817Z,79.38
2018-03-17T01:29:27.144Z,79.24
2018-03-17T01:32:30.831Z,80.00
2018-03-17T01:35:35.224Z,79.76
2018-03-17T01:38:39.591Z,79.47
2018-03-17T01:41:42.910Z,79.18
2018-03-17T01:44:46.185Z,79.40
2018-03-17T01:47:49.469Z,79.46
2018-03-17T01:50:53.567Z,79.52
2018-03-17T01:54:14.819Z,79.55
2018-03-17T01:57:18.128Z,79.15
2018-03-17T02:00:21.416Z,79.33
2018-03-17T02:03:25.439Z,79.44
2018-03-17T02:06:28.874Z,78.99
2018-03-17T02:09:32.157Z,78.63
2018-03-17T02:12:35.442Z,78.27
2018-03-17T02:15:38.730Z,78.38
2018-03-17T02:18:41.998Z,78.35
2018-03-17T02:21:45.281Z,78.62
2018-03-17T02:24:48.546Z,78.87
2018-03-17T02:27:51.813Z,78.69
2018-03-17T02:30:55.082Z,78.67
2018-03-17T02:33:58.369Z,78.60
2018-03-17T02:37:01.631Z,79.05
2018-03-17T02:40:04.905Z,78.73
2018-03-17T02:43:08.165Z,78.76
2018-03-17T02:46:11.441Z,79.09
2018-03-17T02:49:14.690Z,79.32
2018-03-17T02:52:17.974Z,79.73
2018-03-17T02:55:22.009Z,79.01
2018-03-17T02:58:25.273Z,78.99
2018-03-17T03:01:29.314Z,78.75
2018-03-17T03:04:32.613Z,79.12
2018-03-17T03:07:35.869Z,80.03
2018-03-17T03:10:39.919Z,80.77
2018-03-17T03:13:44.021Z,79.86
2018-03-17T03:16:50.985Z,79.93
2018-03-17T03:19:55.008Z,79.41
2018-03-17T03:22:58.268Z,79.29
2018-03-17T03:26:01.548Z,79.18
2018-03-17T03:29:04.901Z,78.82
2018-03-17T03:32:08.169Z,78.85
2018-03-17T03:35:11.549Z,78.88
2018-03-17T03:38:14.790Z,78.62
2018-03-17T03:41:18.091Z,79.19
2018-03-17T03:44:21.358Z,78.83
2018-03-17T03:47:24.629Z,79.35
2018-03-17T03:50:27.889Z,79.39
2018-03-17T03:53:31.938Z,79.03
2018-03-17T03:56:35.207Z,78.92
2018-03-17T03:59:39.251Z,79.37
2018-03-17T04:02:42.532Z,79.48
2018-03-17T04:05:45.831Z,79.21
2018-03-17T04:08:49.125Z,79.15
2018-03-17T04:11:53.154Z,79.08
2018-03-17T04:14:56.421Z,79.45
2018-03-17T04:18:00.450Z,79.82
2018-03-17T04:21:04.482Z,79.78
2018-03-17T04:24:07.845Z,79.64
2018-03-17T04:27:11.881Z,79.34
2018-03-17T04:30:15.155Z,80.98
2018-03-17T04:33:19.206Z,81.75
2018-03-17T04:36:22.482Z,80.94
2018-03-17T04:39:26.725Z,82.52
2018-03-17T04:42:30.804Z,81.49
2018-03-17T04:45:34.088Z,82.19
2018-03-17T04:48:37.393Z,82.82
2018-03-17T04:51:40.657Z,83.07
2018-03-17T04:54:43.934Z,81.64
2018-03-17T04:57:47.216Z,80.92
2018-03-17T05:00:50.492Z,81.33
2018-03-17T05:03:54.552Z,80.62
2018-03-17T05:06:57.826Z,80.00
2018-03-17T05:10:01.137Z,80.65
2018-03-17T05:13:04.375Z,82.38
2018-03-17T05:16:07.639Z,81.24
2018-03-17T05:19:10.919Z,80.80
2018-03-17T05:22:14.189Z,82.11
2018-03-17T05:25:17.459Z,81.07
2018-03-17T05:28:20.714Z,80.37
2018-03-17T05:31:23.995Z,79.63
2018-03-17T05:34:28.021Z,79.61
2018-03-17T05:37:31.292Z,79.43
2018-03-17T05:40:35.330Z,79.39
2018-03-17T05:43:38.619Z,79.44
2018-03-17T05:46:42.648Z,80.00
2018-03-17T05:49:45.924Z,79.80
2018-03-17T05:52:50.086Z,79.54
2018-03-17T05:55:53.386Z,79.69
2018-03-17T05:58:56.650Z,79.46
2018-03-17T06:02:00.074Z,78.78
2018-03-17T06:05:03.336Z,78.65
2018-03-17T06:08:07.373Z,78.31
2018-03-17T06:11:10.637Z,77.67
2018-03-17T06:14:14.773Z,77.59
2018-03-17T06:17:18.198Z,77.24
2018-03-17T06:20:21.453Z,76.96
2018-03-17T06:23:25.486Z,77.12
2018-03-17T06:26:29.533Z,77.20
2018-03-17T06:29:33.628Z,77.56
2018-03-17T06:32:36.912Z,78.55
2018-03-17T06:35:41.027Z,80.34
2018-03-17T06:38:46.285Z,81.81
2018-03-17T06:41:49.762Z,82.37
2018-03-17T06:44:53.823Z,82.75
2018-03-17T06:47:57.085Z,82.35
2018-03-17T06:51:01.137Z,82.07
2018-03-17T06:54:04.401Z,81.98
2018-03-17T06:57:07.677Z,81.89
2018-03-17T07:00:11.818Z,80.94
2018-03-17T07:03:15.085Z,81.63
2018-03-17T07:06:18.414Z,81.70
2018-03-17T07:09:21.684Z,81.39
2018-03-17T07:12:25.729Z,81.73
2018-03-17T07:15:29.123Z,81.46
2018-03-17T07:18:32.389Z,80.75
2018-03-17T07:21:35.920Z,79.49
2018-03-17T07:24:39.225Z,78.52
2018-03-17T07:27:42.486Z,76.31
2018-03-17T07:30:45.899Z,75.96
2018-03-17T07:33:49.316Z,76.34
2018-03-17T07:36:53.437Z,74.82
2018-03-17T07:39:56.728Z,72.99
2018-03-17T07:43:00.854Z,73.57
2018-03-17T07:46:04.348Z,74.58
2018-03-17T07:49:07.621Z,74.39
2018-03-17T07:52:10.896Z,74.93
2018-03-17T07:55:14.253Z,74.17
2018-03-17T07:58:17.518Z,72.74
2018-03-17T08:01:22.074Z,73.98
2018-03-17T08:04:25.354Z,72.32
2018-03-17T08:07:29.382Z,73.42
2018-03-17T08:10:33.417Z,72.87
2018-03-17T08:13:36.693Z,73.66
2018-03-17T08:16:40.293Z,72.69
2018-03-17T08:19:44.521Z,73.14
2018-03-17T08:22:47.882Z,72.09
2018-03-17T08:25:52.025Z,72.76
2018-03-17T08:28:56.199Z,72.39
2018-03-17T08:31:59.519Z,72.70
2018-03-17T08:35:02.827Z,73.07
2018-03-17T08:38:06.905Z,73.89
2018-03-17T08:41:10.258Z,73.98
2018-03-17T08:44:14.529Z,73.13
2018-03-17T08:47:18.164Z,72.03
2018-03-17T08:50:21.457Z,71.86
2018-03-17T08:53:24.785Z,73.15
2018-03-17T08:56:28.069Z,73.67
2018-03-17T08:59:32.106Z,73.34
2018-03-17T09:02:35.433Z,74.38
2018-03-17T09:05:38.769Z,75.26
2018-03-17T09:08:42.895Z,73.96
2018-03-17T09:11:46.924Z,73.75
2018-03-17T09:14:50.226Z,72.59
2018-03-17T09:17:53.558Z,72.01
2018-03-17T09:20:56.928Z,74.92
2018-03-17T09:24:00.666Z,76.75
2018-03-17T09:27:03.998Z,75.87
2018-03-17T09:30:08.798Z,74.07
2018-03-17T09:33:12.238Z,73.26
2018-03-17T09:36:16.410Z,73.10
2018-03-17T09:39:19.705Z,73.60
2018-03-17T09:42:23.073Z,74.17
2018-03-17T09:45:26.342Z,73.64
2018-03-17T09:48:29.973Z,71.78
2018-03-17T09:51:34.091Z,72.13
2018-03-17T09:54:38.130Z,72.50
2018-03-17T09:57:41.486Z,72.10
2018-03-17T10:00:45.634Z,73.28
2018-03-17T10:03:48.969Z,73.39
2018-03-17T10:06:52.232Z,74.09
2018-03-17T10:09:55.521Z,74.53
2018-03-17T10:12:58.793Z,74.81
2018-03-17T10:16:03.386Z,75.20
2018-03-17T10:19:06.945Z,74.41
2018-03-17T10:22:10.994Z,73.86
2018-03-17T10:25:14.380Z,74.27
2018-03-17T10:28:17.683Z,75.00
2018-03-17T10:31:21.066Z,74.78
2018-03-17T10:34:24.385Z,74.79
2018-03-17T10:37:27.703Z,75.46
2018-03-17T10:40:31.158Z,75.78
2018-03-17T10:43:34.446Z,76.34
2018-03-17T10:46:38.592Z,76.57
2018-03-17T10:49:41.875Z,77.86
2018-03-17T10:52:45.143Z,77.63
2018-03-17T10:55:49.227Z,77.33
2018-03-17T10:58:52.530Z,78.10
2018-03-17T11:02:10.694Z,78.26
2018-03-17T11:05:14.026Z,78.32
2018-03-17T11:08:17.299Z,78.00
2018-03-17T11:11:22.190Z,78.33
2018-03-17T11:14:25.639Z,77.86
2018-03-17T11:17:28.837Z,76.37
2018-03-17T11:20:32.869Z,76.59
2018-03-17T11:23:36.298Z,76.00
2018-03-17T11:26:40.897Z,76.18
2018-03-17T11:29:44.197Z,76.44
2018-03-17T11:32:47.533Z,76.28
2018-03-17T11:35:50.814Z,76.51
2018-03-17T11:38:54.157Z,75.97
2018-03-17T11:41:58.950Z,76.21
2018-03-17T11:45:02.565Z,75.93
2018-03-17T11:48:05.829Z,76.65
2018-03-17T11:51:09.089Z,77.13
2018-03-17T11:54:12.617Z,77.20
2018-03-17T11:57:15.975Z,77.66
2018-03-17T12:00:19.315Z,78.41
2018-03-17T12:03:22.613Z,78.25
2018-03-17T12:06:26.654Z,77.08
2018-03-17T12:09:30.011Z,77.14
2018-03-17T12:12:33.274Z,77.75
2018-03-17T12:15:36.743Z,77.93
2018-03-17T12:18:40.626Z,76.88
2018-03-17T12:21:43.921Z,75.77
2018-03-17T12:24:47.959Z,76.33
2018-03-17T12:27:51.229Z,76.80
2018-03-17T12:30:55.278Z,76.81
2018-03-17T12:33:58.549Z,76.47
2018-03-17T12:37:02.633Z,77.11
2018-03-17T12:40:06.178Z,76.96
2018-03-17T12:43:10.398Z,76.66
2018-03-17T12:46:13.722Z,75.81
2018-03-17T12:49:16.991Z,75.83
2018-03-17T12:52:21.111Z,76.03
2018-03-17T12:55:24.432Z,74.58
2018-03-17T12:58:27.705Z,74.86
2018-03-17T13:01:30.976Z,74.59
2018-03-17T13:04:34.374Z,73.39
2018-03-17T13:07:37.610Z,72.75
2018-03-17T13:10:40.897Z,73.02
2018-03-17T13:13:44.556Z,71.52
2018-03-17T13:16:47.808Z,70.95
2018-03-17T13:19:51.215Z,70.45
2018-03-17T13:23:12.377Z,70.34
2018-03-17T13:26:17.192Z,72.18
2018-03-17T13:29:20.436Z,71.09
2018-03-17T13:32:42.449Z,70.68
2018-03-17T13:36:03.885Z,71.38
2018-03-17T13:39:08.051Z,71.68
2018-03-17T13:42:11.329Z,72.75
2018-03-17T13:45:14.718Z,72.46
2018-03-17T13:48:17.986Z,72.25
2018-03-17T13:51:22.762Z,74.08
2018-03-17T13:54:26.514Z,72.82
2018-03-17T13:57:29.781Z,73.79
2018-03-17T14:00:33.051Z,74.13
2018-03-17T14:03:37.076Z,75.15
2018-03-17T14:06:40.365Z,74.68
2018-03-17T14:09:43.790Z,75.04
2018-03-17T14:12:47.173Z,75.05
2018-03-17T14:15:51.262Z,75.11
2018-03-17T14:18:55.391Z,75.59
2018-03-17T14:21:59.420Z,75.64
2018-03-17T14:25:02.697Z,75.60
2018-03-17T14:28:06.721Z,75.62
2018-03-17T14:31:09.995Z,75.24
2018-03-17T14:34:13.261Z,74.88
2018-03-17T14:37:16.580Z,75.44
2018-03-17T14:40:20.118Z,75.28
2018-03-17T14:43:23.439Z,75.24
2018-03-17T14:46:26.761Z,75.61
2018-03-17T14:49:30.062Z,75.62
2018-03-17T14:52:33.330Z,76.12
2018-03-17T14:55:36.608Z,76.08
2018-03-17T14:58:40.637Z,76.26
2018-03-17T15:01:43.934Z,76.11
2018-03-17T15:04:47.215Z,76.23
2018-03-17T15:07:50.511Z,75.86
2018-03-17T15:10:53.822Z,75.87
2018-03-17T15:13:57.122Z,75.93
2018-03-17T15:17:00.413Z,75.58
2018-03-17T15:20:04.452Z,76.05
2018-03-17T15:23:07.745Z,75.85
2018-03-17T15:26:11.049Z,76.01
2018-03-17T15:29:14.435Z,75.22
2018-03-17T15:32:17.729Z,75.63
2018-03-17T15:35:21.000Z,76.02
2018-03-17T15:38:24.262Z,75.99
2018-03-17T15:41:27.526Z,76.33
2018-03-17T15:44:31.608Z,76.36
2018-03-17T15:47:34.877Z,76.78
2018-03-17T15:50:38.238Z,76.87
2018-03-17T15:53:41.518Z,77.41
2018-03-17T15:56:45.547Z,77.12
2018-03-17T15:59:48.865Z,76.64
2018-03-17T16:02:52.271Z,76.53
2018-03-17T16:05:55.551Z,76.43
2018-03-17T16:08:59.608Z,76.92
2018-03-17T16:12:03.662Z,76.74
2018-03-17T16:15:07.754Z,76.71
2018-03-17T16:18:11.024Z,76.45
2018-03-17T16:21:14.330Z,76.50
2018-03-17T16:24:17.602Z,77.01
2018-03-17T16:27:20.884Z,76.63
2018-03-17T16:30:24.159Z,77.54
2018-03-17T16:33:27.748Z,77.38
2018-03-17T16:36:31.017Z,77.24
2018-03-17T16:39:34.290Z,77.30
2018-03-17T16:42:37.652Z,77.40
2018-03-17T16:45:41.716Z,77.09
2018-03-17T16:51:42.609Z,77.41
2018-03-17T16:54:45.948Z,77.12
2018-03-17T16:57:50.425Z,77.34
2018-03-17T17:00:53.695Z,77.39
2018-03-17T17:03:56.974Z,77.32
2018-03-17T17:07:00.254Z,77.27
2018-03-17T17:10:04.547Z,77.51
2018-03-17T17:13:08.627Z,77.64
2018-03-17T17:16:12.207Z,77.12
2018-03-17T17:19:16.241Z,77.29
2018-03-17T17:22:19.544Z,77.50
2018-03-17T17:25:22.845Z,77.52
2018-03-17T17:28:26.110Z,77.76
2018-03-17T17:31:30.156Z,77.91
2018-03-17T17:34:33.408Z,78.12
2018-03-17T17:37:37.435Z,77.53
2018-03-17T17:40:41.469Z,77.48
2018-03-17T17:43:45.975Z,77.98
2018-03-17T17:46:50.117Z,78.21
2018-03-17T17:49:53.396Z,78.47
2018-03-17T17:52:56.664Z,78.06
2018-03-17T17:55:59.950Z,78.15
2018-03-17T17:59:03.235Z,78.60
2018-03-17T18:02:06.510Z,78.56
2018-03-17T18:05:09.773Z,78.85
2018-03-17T18:08:13.079Z,79.10
2018-03-17T18:11:16.344Z,79.27
2018-03-17T18:14:19.690Z,79.79
2018-03-17T18:17:22.977Z,79.93
2018-03-17T18:20:26.242Z,80.32
2018-03-17T18:23:29.527Z,80.37
2018-03-17T18:26:32.786Z,80.90
2018-03-17T18:29:36.069Z,80.95
2018-03-17T18:32:39.349Z,81.50
2018-03-17T18:35:43.425Z,81.13
2018-03-17T18:38:46.705Z,80.98
2018-03-17T18:41:49.990Z,80.37
2018-03-17T18:44:53.259Z,80.54
2018-03-17T18:47:57.380Z,80.95
2018-03-17T18:51:02.259Z,80.30
2018-03-17T18:54:05.546Z,79.94
2018-03-17T18:57:08.921Z,80.06
2018-03-17T19:00:14.082Z,79.82
2018-03-17T19:03:17.392Z,79.51
2018-03-17T19:06:20.673Z,79.31
2018-03-17T19:09:24.840Z,78.76
2018-03-17T19:12:28.302Z,78.52
2018-03-17T19:15:31.596Z,79.33
2018-03-17T19:18:34.922Z,79.45
2018-03-17T19:21:38.198Z,79.25
2018-03-17T19:24:41.494Z,79.37
2018-03-17T19:27:44.789Z,78.39
2018-03-17T19:30:48.196Z,78.91
2018-03-17T19:33:51.733Z,79.18
2018-03-17T19:36:55.102Z,80.08
2018-03-17T19:39:58.496Z,80.39
2018-03-17T19:43:01.895Z,80.19
2018-03-17T19:46:06.108Z,80.90
2018-03-17T19:49:10.257Z,80.64
2018-03-17T19:52:23.049Z,79.78
2018-03-17T19:55:27.189Z,80.43
2018-03-17T19:58:30.523Z,80.70
2018-03-17T20:01:33.880Z,80.61
2018-03-17T20:04:37.179Z,81.62
2018-03-17T20:07:40.563Z,81.50
2018-03-17T20:10:44.597Z,80.96
2018-03-17T20:13:47.907Z,80.61
2018-03-17T20:16:51.278Z,81.01
2018-03-17T20:19:54.857Z,81.53
2018-03-17T20:22:59.625Z,81.62
2018-03-17T20:26:02.922Z,81.49
2018-03-17T20:29:06.942Z,81.54
2018-03-17T20:32:10.374Z,80.85
2018-03-17T20:35:13.645Z,81.18
2018-03-17T20:38:16.940Z,81.21
2018-03-17T20:41:20.359Z,80.67
2018-03-17T20:44:24.239Z,81.06
2018-03-17T20:47:27.642Z,80.98
2018-03-17T20:50:31.801Z,81.09
2018-03-17T20:53:35.170Z,81.93
2018-03-17T20:56:38.454Z,80.58
2018-03-17T20:59:41.745Z,80.11
2018-03-17T21:02:45.804Z,80.03
2018-03-17T21:05:49.159Z,80.11
2018-03-17T21:08:53.690Z,79.49
2018-03-17T21:11:56.962Z,80.07
2018-03-17T21:15:00.282Z,79.11
2018-03-17T21:18:04.313Z,79.34
2018-03-17T21:21:07.597Z,79.92
2018-03-17T21:24:11.708Z,80.76
2018-03-17T21:27:14.987Z,79.93
2018-03-17T21:30:19.850Z,80.32
2018-03-17T21:33:23.141Z,80.90
2018-03-17T21:36:27.343Z,80.50
2018-03-17T21:39:31.393Z,80.19
2018-03-17T21:42:34.715Z,79.85
2018-03-17T21:45:37.971Z,79.87
2018-03-17T21:48:41.265Z,80.18
2018-03-17T21:51:45.587Z,80.10
2018-03-17T21:54:48.879Z,80.92
2018-03-17T21:57:52.918Z,80.51
2018-03-17T22:00:56.215Z,79.58
2018-03-17T22:03:59.507Z,80.29
2018-03-17T22:07:02.999Z,79.90
2018-03-17T22:10:07.043Z,80.08
2018-03-17T22:13:10.616Z,79.41
2018-03-17T22:16:14.031Z,79.18
2018-03-17T22:19:17.306Z,78.72
2018-03-17T22:22:21.366Z,78.51
2018-03-17T22:25:24.646Z,78.39
2018-03-17T22:28:27.919Z,78.90
2018-03-17T22:31:31.966Z,79.12
2018-03-17T22:34:35.238Z,78.30
2018-03-17T22:37:38.535Z,78.07
2018-03-17T22:40:42.575Z,78.48
2018-03-17T22:43:46.043Z,78.39
2018-03-17T22:46:50.168Z,78.46
2018-03-17T22:49:54.378Z,77.76
2018-03-17T22:52:58.569Z,77.99
2018-03-17T22:56:01.842Z,77.83
2018-03-17T22:59:05.115Z,78.24
2018-03-17T23:02:08.404Z,78.20
2018-03-17T23:05:11.701Z,78.17
2018-03-17T23:08:14.995Z,77.88
2018-03-17T23:11:18.288Z,78.09
2018-03-17T23:14:22.317Z,77.88
2018-03-17T23:17:25.616Z,77.41
2018-03-17T23:20:28.976Z,78.14
2018-03-17T23:23:32.311Z,77.77
2018-03-17T23:26:35.593Z,76.93
2018-03-17T23:29:39.893Z,77.16
2018-03-17T23:32:43.933Z,77.10
2018-03-17T23:35:47.345Z,77.54
2018-03-17T23:38:50.636Z,76.73
2018-03-17T23:41:54.031Z,77.01
2018-03-17T23:44:57.545Z,76.56
2018-03-17T23:48:00.830Z,76.76
2018-03-17T23:51:04.418Z,76.91
2018-03-17T23:54:08.466Z,76.56
2018-03-17T23:57:11.765Z,77.08
